George S. — A8TJ9 — position and weather

sailwx.info

Track history (hours):
 
Tides and Currents Weather Stations Pressure Air Temp Water Temp Dewpoint Dewpoint Depression Visibility Wind Speed Wind Dir Waves Ship Positions

George S.

Last reported at 2016-Dec-20 16:22 UTC. Time now 2017-Jan-17 21:23 UTC.
Position S 29°41' E 031°54'.
Warning: this ship's position is 28 days out of date.

Length 274 m; draft 14.9 m.

Type: Tanker. MMSI: 636014372.

Date/timePositionNaut miles runAvg speedWind from/ knotsBaromVisibWave heightAir tempDewpointWater temp
2016-Dec-20 16:22S 29°41' E 031°54'810.2
2016-Dec-20 15:33S 29°44' E 031°45'1111.0
2016-Dec-20 14:33S 29°46' E 031°32'1313.0
2016-Dec-20 13:33S 29°50' E 031°18'7 6.7
2016-Dec-20 12:33S 29°51' E 031°10'1 0.7
2016-Dec-20 11:33S 29°51' E 031°10'0 0.4
2016-Dec-20 10:33S 29°52' E 031°10'1 1.3
2016-Dec-20 09:33S 29°53' E 031°09'1211.9
2016-Dec-20 08:33S 30°05' E 031°08'1413.9
2016-Dec-20 07:34S 30°18' E 031°04'1211.9
2016-Dec-20 06:34S 30°30' E 031°01'1511.9
2016-Dec-20 05:18S 30°45' E 030°58'  
Track history (hours):
 
Tides and Currents Weather Stations Pressure Air Temp Water Temp Dewpoint Dewpoint Depression Visibility Wind Speed Wind Dir Waves Ship Positions

George S.

Last reported at 2016-Dec-20 16:22 UTC. Time now 2017-Jan-17 21:23 UTC.
Position S 29°41' E 031°54'.
Warning: this ship's position is 28 days out of date.

Length 274 m; draft 14.9 m.

Type: Tanker. MMSI: 636014372.

Date/timePositionNaut miles runAvg speedWind from/ knotsBaromVisibWave heightAir tempDewpointWater temp
2016-Dec-20 16:22S 29°41' E 031°54'810.2
2016-Dec-20 15:33S 29°44' E 031°45'1111.0
2016-Dec-20 14:33S 29°46' E 031°32'1313.0
2016-Dec-20 13:33S 29°50' E 031°18'7 6.7
2016-Dec-20 12:33S 29°51' E 031°10'1 0.7
2016-Dec-20 11:33S 29°51' E 031°10'0 0.4
2016-Dec-20 10:33S 29°52' E 031°10'1 1.3
2016-Dec-20 09:33S 29°53' E 031°09'1211.9
2016-Dec-20 08:33S 30°05' E 031°08'1413.9
2016-Dec-20 07:34S 30°18' E 031°04'1211.9
2016-Dec-20 06:34S 30°30' E 031°01'1511.9
2016-Dec-20 05:18S 30°45' E 030°58'  

Dump ship's entire track history